sensor_id;sensor_type;location;lat;lon;timestamp;P1;durP1;ratioP1;P2;durP2;ratioP2
18997;SDS011;9632;51.018;4.284;2022-08-04T00:00:30;3.60;;;1.45;;
18997;SDS011;9632;51.018;4.284;2022-08-04T00:11:06;4.00;;;1.65;;
18997;SDS011;9632;51.018;4.284;2022-08-04T00:13:36;5.80;;;1.60;;
18997;SDS011;9632;51.018;4.284;2022-08-04T00:16:04;5.38;;;1.90;;
18997;SDS011;9632;51.018;4.284;2022-08-04T00:21:14;4.03;;;1.70;;
18997;SDS011;9632;51.018;4.284;2022-08-04T00:23:43;3.58;;;1.63;;
18997;SDS011;9632;51.018;4.284;2022-08-04T00:26:09;4.05;;;1.70;;
18997;SDS011;9632;51.018;4.284;2022-08-04T00:28:36;4.50;;;1.77;;
18997;SDS011;9632;51.018;4.284;2022-08-04T00:31:03;4.10;;;1.52;;
18997;SDS011;9632;51.018;4.284;2022-08-04T00:33:30;4.00;;;2.00;;
18997;SDS011;9632;51.018;4.284;2022-08-04T00:35:57;6.07;;;1.90;;
18997;SDS011;9632;51.018;4.284;2022-08-04T00:38:24;2.38;;;1.45;;
18997;SDS011;9632;51.018;4.284;2022-08-04T00:41:02;4.63;;;1.83;;
18997;SDS011;9632;51.018;4.284;2022-08-04T00:44:08;1.95;;;1.50;;
18997;SDS011;9632;51.018;4.284;2022-08-04T00:47:30;5.60;;;1.90;;
18997;SDS011;9632;51.018;4.284;2022-08-04T01:04:28;4.30;;;1.77;;
18997;SDS011;9632;51.018;4.284;2022-08-04T01:15:52;5.85;;;1.88;;
18997;SDS011;9632;51.018;4.284;2022-08-04T01:24:14;3.67;;;1.73;;
18997;SDS011;9632;51.018;4.284;2022-08-04T01:29:26;3.17;;;1.50;;
18997;SDS011;9632;51.018;4.284;2022-08-04T01:32:04;4.45;;;1.70;;
18997;SDS011;9632;51.018;4.284;2022-08-04T01:34:46;6.90;;;1.70;;
18997;SDS011;9632;51.018;4.284;2022-08-04T01:40:05;4.40;;;1.60;;
18997;SDS011;9632;51.018;4.284;2022-08-04T01:42:33;5.00;;;1.63;;
18997;SDS011;9632;51.018;4.284;2022-08-04T01:45:04;5.28;;;2.10;;
18997;SDS011;9632;51.018;4.284;2022-08-04T01:47:33;7.95;;;2.15;;
18997;SDS011;9632;51.018;4.284;2022-08-04T01:50:07;8.77;;;2.28;;
18997;SDS011;9632;51.018;4.284;2022-08-04T01:52:35;8.65;;;2.65;;
18997;SDS011;9632;51.018;4.284;2022-08-04T01:55:03;7.45;;;2.85;;
18997;SDS011;9632;51.018;4.284;2022-08-04T01:57:31;6.88;;;2.30;;
18997;SDS011;9632;51.018;4.284;2022-08-04T01:59:58;5.80;;;2.38;;
18997;SDS011;9632;51.018;4.284;2022-08-04T02:02:24;6.90;;;2.22;;
18997;SDS011;9632;51.018;4.284;2022-08-04T02:04:50;9.90;;;2.22;;
18997;SDS011;9632;51.018;4.284;2022-08-04T02:07:19;4.63;;;2.17;;
18997;SDS011;9632;51.018;4.284;2022-08-04T02:10:03;5.35;;;2.30;;
18997;SDS011;9632;51.018;4.284;2022-08-04T02:12:48;7.13;;;1.95;;
18997;SDS011;9632;51.018;4.284;2022-08-04T02:15:26;5.90;;;2.33;;
18997;SDS011;9632;51.018;4.284;2022-08-04T02:18:22;4.45;;;1.85;;
18997;SDS011;9632;51.018;4.284;2022-08-04T02:20:56;5.60;;;2.15;;
18997;SDS011;9632;51.018;4.284;2022-08-04T02:23:28;5.75;;;1.90;;
18997;SDS011;9632;51.018;4.284;2022-08-04T02:26:05;5.20;;;2.13;;
18997;SDS011;9632;51.018;4.284;2022-08-04T02:31:29;6.15;;;2.10;;
18997;SDS011;9632;51.018;4.284;2022-08-04T02:34:08;7.45;;;2.35;;
18997;SDS011;9632;51.018;4.284;2022-08-04T02:36:41;4.65;;;2.47;;
18997;SDS011;9632;51.018;4.284;2022-08-04T02:39:08;6.50;;;2.50;;
18997;SDS011;9632;51.018;4.284;2022-08-04T02:41:35;3.65;;;2.00;;
18997;SDS011;9632;51.018;4.284;2022-08-04T02:44:03;4.15;;;2.13;;
18997;SDS011;9632;51.018;4.284;2022-08-04T02:46:30;5.40;;;2.17;;
18997;SDS011;9632;51.018;4.284;2022-08-04T02:48:57;5.78;;;2.33;;
18997;SDS011;9632;51.018;4.284;2022-08-04T02:51:28;4.88;;;2.30;;
18997;SDS011;9632;51.018;4.284;2022-08-04T02:53:57;4.20;;;1.98;;
18997;SDS011;9632;51.018;4.284;2022-08-04T02:56:26;5.40;;;2.20;;
18997;SDS011;9632;51.018;4.284;2022-08-04T02:58:58;5.22;;;1.90;;
18997;SDS011;9632;51.018;4.284;2022-08-04T03:01:31;4.63;;;2.20;;
18997;SDS011;9632;51.018;4.284;2022-08-04T03:09:41;4.65;;;2.00;;
18997;SDS011;9632;51.018;4.284;2022-08-04T03:26:43;5.30;;;1.85;;
18997;SDS011;9632;51.018;4.284;2022-08-04T03:51:59;5.00;;;2.10;;
18997;SDS011;9632;51.018;4.284;2022-08-04T04:09:27;4.25;;;2.03;;
18997;SDS011;9632;51.018;4.284;2022-08-04T04:17:43;6.65;;;2.10;;
18997;SDS011;9632;51.018;4.284;2022-08-04T04:28:36;4.97;;;1.73;;
18997;SDS011;9632;51.018;4.284;2022-08-04T04:31:24;6.10;;;2.03;;
18997;SDS011;9632;51.018;4.284;2022-08-04T04:34:03;3.05;;;1.65;;
18997;SDS011;9632;51.018;4.284;2022-08-04T04:36:34;4.03;;;1.60;;
18997;SDS011;9632;51.018;4.284;2022-08-04T04:47:23;5.50;;;1.80;;
18997;SDS011;9632;51.018;4.284;2022-08-04T04:50:13;3.97;;;1.90;;
18997;SDS011;9632;51.018;4.284;2022-08-04T04:52:48;5.03;;;1.60;;
18997;SDS011;9632;51.018;4.284;2022-08-04T04:55:21;4.20;;;1.70;;
18997;SDS011;9632;51.018;4.284;2022-08-04T04:57:52;3.00;;;1.77;;
18997;SDS011;9632;51.018;4.284;2022-08-04T05:00:21;4.38;;;1.90;;
18997;SDS011;9632;51.018;4.284;2022-08-04T05:02:58;4.85;;;1.83;;
18997;SDS011;9632;51.018;4.284;2022-08-04T05:05:56;4.15;;;1.73;;
18997;SDS011;9632;51.018;4.284;2022-08-04T05:13:58;4.50;;;1.80;;
18997;SDS011;9632;51.018;4.284;2022-08-04T05:16:45;6.00;;;1.98;;
18997;SDS011;9632;51.018;4.284;2022-08-04T05:22:10;5.93;;;1.60;;
18997;SDS011;9632;51.018;4.284;2022-08-04T05:24:42;4.88;;;1.80;;
18997;SDS011;9632;51.018;4.284;2022-08-04T05:27:21;4.57;;;1.92;;
18997;SDS011;9632;51.018;4.284;2022-08-04T05:29:56;3.92;;;1.70;;
18997;SDS011;9632;51.018;4.284;2022-08-04T05:32:28;3.83;;;1.55;;
18997;SDS011;9632;51.018;4.284;2022-08-04T05:35:11;7.57;;;2.55;;
18997;SDS011;9632;51.018;4.284;2022-08-04T05:37:46;5.53;;;2.30;;
18997;SDS011;9632;51.018;4.284;2022-08-04T05:40:15;5.70;;;2.13;;
18997;SDS011;9632;51.018;4.284;2022-08-04T05:42:43;4.50;;;1.90;;
18997;SDS011;9632;51.018;4.284;2022-08-04T05:45:09;5.72;;;2.40;;
18997;SDS011;9632;51.018;4.284;2022-08-04T05:47:35;5.63;;;2.00;;
18997;SDS011;9632;51.018;4.284;2022-08-04T05:50:02;5.05;;;2.10;;
18997;SDS011;9632;51.018;4.284;2022-08-04T05:52:30;7.78;;;2.75;;
18997;SDS011;9632;51.018;4.284;2022-08-04T05:54:57;8.52;;;3.20;;
18997;SDS011;9632;51.018;4.284;2022-08-04T05:57:24;6.40;;;2.60;;
18997;SDS011;9632;51.018;4.284;2022-08-04T05:59:50;6.40;;;2.42;;
18997;SDS011;9632;51.018;4.284;2022-08-04T06:02:17;14.48;;;3.20;;
18997;SDS011;9632;51.018;4.284;2022-08-04T06:04:45;10.02;;;3.05;;
18997;SDS011;9632;51.018;4.284;2022-08-04T06:07:12;9.88;;;3.10;;
18997;SDS011;9632;51.018;4.284;2022-08-04T06:09:39;8.10;;;2.80;;
18997;SDS011;9632;51.018;4.284;2022-08-04T06:12:16;8.98;;;3.08;;
18997;SDS011;9632;51.018;4.284;2022-08-04T06:14:46;9.05;;;3.10;;
18997;SDS011;9632;51.018;4.284;2022-08-04T06:17:25;10.38;;;3.67;;
18997;SDS011;9632;51.018;4.284;2022-08-04T06:19:58;10.10;;;3.78;;
18997;SDS011;9632;51.018;4.284;2022-08-04T06:22:25;8.65;;;3.08;;
18997;SDS011;9632;51.018;4.284;2022-08-04T06:24:54;9.45;;;3.55;;
18997;SDS011;9632;51.018;4.284;2022-08-04T06:27:21;10.93;;;3.50;;
18997;SDS011;9632;51.018;4.284;2022-08-04T06:29:47;7.30;;;3.35;;
18997;SDS011;9632;51.018;4.284;2022-08-04T06:32:14;9.90;;;3.00;;
18997;SDS011;9632;51.018;4.284;2022-08-04T06:34:51;7.00;;;3.05;;
18997;SDS011;9632;51.018;4.284;2022-08-04T06:37:19;9.20;;;3.20;;
18997;SDS011;9632;51.018;4.284;2022-08-04T06:39:45;9.77;;;3.63;;
18997;SDS011;9632;51.018;4.284;2022-08-04T06:42:12;7.70;;;3.33;;
18997;SDS011;9632;51.018;4.284;2022-08-04T06:44:38;8.57;;;3.50;;
18997;SDS011;9632;51.018;4.284;2022-08-04T06:47:06;6.72;;;3.00;;
18997;SDS011;9632;51.018;4.284;2022-08-04T06:49:33;8.68;;;3.53;;
18997;SDS011;9632;51.018;4.284;2022-08-04T06:52:01;11.43;;;4.20;;
18997;SDS011;9632;51.018;4.284;2022-08-04T06:54:28;14.18;;;4.30;;
18997;SDS011;9632;51.018;4.284;2022-08-04T06:56:55;13.90;;;4.22;;
18997;SDS011;9632;51.018;4.284;2022-08-04T06:59:22;11.18;;;4.15;;
18997;SDS011;9632;51.018;4.284;2022-08-04T07:01:49;9.38;;;4.07;;
18997;SDS011;9632;51.018;4.284;2022-08-04T07:04:16;9.40;;;4.32;;
18997;SDS011;9632;51.018;4.284;2022-08-04T07:06:42;7.05;;;3.78;;
18997;SDS011;9632;51.018;4.284;2022-08-04T07:09:08;7.50;;;3.35;;
18997;SDS011;9632;51.018;4.284;2022-08-04T07:11:34;11.20;;;5.10;;
18997;SDS011;9632;51.018;4.284;2022-08-04T07:14:00;9.68;;;4.40;;
18997;SDS011;9632;51.018;4.284;2022-08-04T07:16:28;13.35;;;4.45;;
18997;SDS011;9632;51.018;4.284;2022-08-04T07:18:56;9.50;;;4.38;;
18997;SDS011;9632;51.018;4.284;2022-08-04T07:21:22;12.40;;;4.82;;
18997;SDS011;9632;51.018;4.284;2022-08-04T07:23:49;9.45;;;4.35;;
18997;SDS011;9632;51.018;4.284;2022-08-04T07:26:15;11.10;;;5.82;;
18997;SDS011;9632;51.018;4.284;2022-08-04T07:28:43;17.15;;;6.28;;
18997;SDS011;9632;51.018;4.284;2022-08-04T07:31:10;15.27;;;7.10;;
18997;SDS011;9632;51.018;4.284;2022-08-04T07:33:40;14.75;;;7.72;;
18997;SDS011;9632;51.018;4.284;2022-08-04T07:36:07;12.63;;;7.20;;
18997;SDS011;9632;51.018;4.284;2022-08-04T07:38:33;16.55;;;8.00;;
18997;SDS011;9632;51.018;4.284;2022-08-04T07:40:59;15.43;;;8.00;;
18997;SDS011;9632;51.018;4.284;2022-08-04T07:43:27;14.90;;;8.05;;
18997;SDS011;9632;51.018;4.284;2022-08-04T07:45:54;15.35;;;8.65;;
18997;SDS011;9632;51.018;4.284;2022-08-04T07:48:20;16.30;;;8.52;;
18997;SDS011;9632;51.018;4.284;2022-08-04T07:50:48;19.70;;;8.38;;
18997;SDS011;9632;51.018;4.284;2022-08-04T07:53:14;18.17;;;8.95;;
18997;SDS011;9632;51.018;4.284;2022-08-04T07:55:41;24.20;;;10.85;;
18997;SDS011;9632;51.018;4.284;2022-08-04T07:58:08;17.15;;;9.73;;
18997;SDS011;9632;51.018;4.284;2022-08-04T08:00:33;17.45;;;9.90;;
18997;SDS011;9632;51.018;4.284;2022-08-04T08:03:02;21.13;;;10.25;;
18997;SDS011;9632;51.018;4.284;2022-08-04T08:05:28;19.00;;;10.48;;
18997;SDS011;9632;51.018;4.284;2022-08-04T08:07:54;19.55;;;9.70;;
18997;SDS011;9632;51.018;4.284;2022-08-04T08:10:22;18.70;;;10.27;;
18997;SDS011;9632;51.018;4.284;2022-08-04T08:12:48;17.55;;;9.88;;
18997;SDS011;9632;51.018;4.284;2022-08-04T08:15:15;22.30;;;11.10;;
18997;SDS011;9632;51.018;4.284;2022-08-04T08:17:41;23.02;;;11.27;;
18997;SDS011;9632;51.018;4.284;2022-08-04T08:20:07;22.45;;;10.68;;
18997;SDS011;9632;51.018;4.284;2022-08-04T08:22:34;23.13;;;11.40;;
18997;SDS011;9632;51.018;4.284;2022-08-04T08:25:01;33.95;;;15.57;;
18997;SDS011;9632;51.018;4.284;2022-08-04T08:27:27;39.65;;;18.70;;
18997;SDS011;9632;51.018;4.284;2022-08-04T08:29:53;44.35;;;19.15;;
18997;SDS011;9632;51.018;4.284;2022-08-04T08:32:19;52.13;;;22.88;;
18997;SDS011;9632;51.018;4.284;2022-08-04T08:34:45;57.05;;;24.80;;
18997;SDS011;9632;51.018;4.284;2022-08-04T08:40:37;50.63;;;23.10;;
18997;SDS011;9632;51.018;4.284;2022-08-04T08:48:26;55.78;;;25.27;;
18997;SDS011;9632;51.018;4.284;2022-08-04T08:51:53;59.33;;;28.90;;
18997;SDS011;9632;51.018;4.284;2022-08-04T09:10:42;47.83;;;23.45;;
18997;SDS011;9632;51.018;4.284;2022-08-04T09:19:05;45.83;;;25.40;;
18997;SDS011;9632;51.018;4.284;2022-08-04T09:27:14;43.17;;;23.42;;
18997;SDS011;9632;51.018;4.284;2022-08-04T09:29:50;37.03;;;21.65;;
18997;SDS011;9632;51.018;4.284;2022-08-04T09:41:02;35.03;;;20.05;;
18997;SDS011;9632;51.018;4.284;2022-08-04T09:49:15;35.28;;;20.77;;
18997;SDS011;9632;51.018;4.284;2022-08-04T09:54:49;37.72;;;20.98;;
18997;SDS011;9632;51.018;4.284;2022-08-04T10:00:28;30.40;;;18.77;;
18997;SDS011;9632;51.018;4.284;2022-08-04T10:03:00;33.65;;;18.58;;
18997;SDS011;9632;51.018;4.284;2022-08-04T10:05:41;27.85;;;17.20;;
18997;SDS011;9632;51.018;4.284;2022-08-04T10:11:00;28.17;;;17.00;;
18997;SDS011;9632;51.018;4.284;2022-08-04T10:16:06;22.30;;;14.75;;
18997;SDS011;9632;51.018;4.284;2022-08-04T10:18:51;25.60;;;15.40;;
18997;SDS011;9632;51.018;4.284;2022-08-04T10:24:42;21.58;;;14.52;;
18997;SDS011;9632;51.018;4.284;2022-08-04T10:27:24;21.55;;;13.80;;
18997;SDS011;9632;51.018;4.284;2022-08-04T10:29:53;17.55;;;10.32;;
18997;SDS011;9632;51.018;4.284;2022-08-04T10:32:39;14.68;;;9.18;;
18997;SDS011;9632;51.018;4.284;2022-08-04T10:35:10;9.82;;;7.25;;
18997;SDS011;9632;51.018;4.284;2022-08-04T10:37:41;13.77;;;8.43;;
18997;SDS011;9632;51.018;4.284;2022-08-04T10:40:20;10.13;;;7.03;;
18997;SDS011;9632;51.018;4.284;2022-08-04T10:43:02;13.57;;;7.78;;
18997;SDS011;9632;51.018;4.284;2022-08-04T10:45:32;12.27;;;7.15;;
18997;SDS011;9632;51.018;4.284;2022-08-04T10:48:14;9.27;;;6.03;;
18997;SDS011;9632;51.018;4.284;2022-08-04T10:50:49;10.15;;;6.22;;
18997;SDS011;9632;51.018;4.284;2022-08-04T10:53:27;12.27;;;6.28;;
18997;SDS011;9632;51.018;4.284;2022-08-04T10:56:02;7.10;;;5.30;;
18997;SDS011;9632;51.018;4.284;2022-08-04T10:58:44;7.15;;;4.63;;
18997;SDS011;9632;51.018;4.284;2022-08-04T11:01:18;7.82;;;5.13;;
18997;SDS011;9632;51.018;4.284;2022-08-04T11:03:55;9.43;;;5.03;;
18997;SDS011;9632;51.018;4.284;2022-08-04T11:06:25;6.13;;;4.07;;
18997;SDS011;9632;51.018;4.284;2022-08-04T11:08:55;7.07;;;4.18;;
18997;SDS011;9632;51.018;4.284;2022-08-04T11:14:10;7.88;;;3.90;;
18997;SDS011;9632;51.018;4.284;2022-08-04T11:17:02;6.30;;;4.10;;
18997;SDS011;9632;51.018;4.284;2022-08-04T11:22:10;9.23;;;4.13;;
18997;SDS011;9632;51.018;4.284;2022-08-04T11:30:19;10.77;;;4.65;;
18997;SDS011;9632;51.018;4.284;2022-08-04T11:32:48;8.65;;;4.20;;
18997;SDS011;9632;51.018;4.284;2022-08-04T11:35:28;7.68;;;4.32;;
18997;SDS011;9632;51.018;4.284;2022-08-04T11:41:08;6.05;;;3.40;;
18997;SDS011;9632;51.018;4.284;2022-08-04T11:43:53;7.38;;;2.80;;
18997;SDS011;9632;51.018;4.284;2022-08-04T11:46:31;7.10;;;2.38;;
18997;SDS011;9632;51.018;4.284;2022-08-04T11:49:06;6.13;;;2.63;;
18997;SDS011;9632;51.018;4.284;2022-08-04T11:51:35;5.35;;;2.70;;
18997;SDS011;9632;51.018;4.284;2022-08-04T11:54:02;5.57;;;3.22;;
18997;SDS011;9632;51.018;4.284;2022-08-04T11:56:29;6.10;;;2.97;;
18997;SDS011;9632;51.018;4.284;2022-08-04T11:58:56;8.00;;;4.25;;
18997;SDS011;9632;51.018;4.284;2022-08-04T12:06:38;8.45;;;2.90;;
18997;SDS011;9632;51.018;4.284;2022-08-04T12:12:18;4.15;;;2.92;;
18997;SDS011;9632;51.018;4.284;2022-08-04T12:14:53;7.68;;;4.15;;
18997;SDS011;9632;51.018;4.284;2022-08-04T12:17:31;6.88;;;3.40;;
18997;SDS011;9632;51.018;4.284;2022-08-04T12:20:04;5.53;;;2.83;;
18997;SDS011;9632;51.018;4.284;2022-08-04T12:22:36;8.13;;;3.42;;
18997;SDS011;9632;51.018;4.284;2022-08-04T12:25:06;7.75;;;3.35;;
18997;SDS011;9632;51.018;4.284;2022-08-04T12:27:54;5.57;;;2.95;;
18997;SDS011;9632;51.018;4.284;2022-08-04T12:30:48;9.20;;;4.00;;
18997;SDS011;9632;51.018;4.284;2022-08-04T12:33:30;7.57;;;4.13;;
18997;SDS011;9632;51.018;4.284;2022-08-04T12:36:28;8.15;;;3.53;;
18997;SDS011;9632;51.018;4.284;2022-08-04T12:39:05;8.32;;;4.65;;
18997;SDS011;9632;51.018;4.284;2022-08-04T12:41:38;5.93;;;3.17;;
18997;SDS011;9632;51.018;4.284;2022-08-04T12:44:09;8.70;;;3.88;;
18997;SDS011;9632;51.018;4.284;2022-08-04T12:46:37;7.20;;;2.80;;
18997;SDS011;9632;51.018;4.284;2022-08-04T12:49:08;6.30;;;3.63;;
18997;SDS011;9632;51.018;4.284;2022-08-04T12:51:37;8.43;;;4.03;;
18997;SDS011;9632;51.018;4.284;2022-08-04T12:54:06;5.00;;;3.03;;
18997;SDS011;9632;51.018;4.284;2022-08-04T12:56:34;9.38;;;3.40;;
18997;SDS011;9632;51.018;4.284;2022-08-04T12:59:01;7.43;;;3.65;;
18997;SDS011;9632;51.018;4.284;2022-08-04T13:01:29;9.00;;;4.03;;
18997;SDS011;9632;51.018;4.284;2022-08-04T13:03:58;4.13;;;2.88;;
18997;SDS011;9632;51.018;4.284;2022-08-04T13:06:29;7.57;;;3.05;;
18997;SDS011;9632;51.018;4.284;2022-08-04T13:09:05;7.90;;;4.30;;
18997;SDS011;9632;51.018;4.284;2022-08-04T13:11:46;7.68;;;3.33;;
18997;SDS011;9632;51.018;4.284;2022-08-04T13:14:15;9.15;;;3.63;;
18997;SDS011;9632;51.018;4.284;2022-08-04T13:16:42;5.90;;;3.70;;
18997;SDS011;9632;51.018;4.284;2022-08-04T13:19:08;6.95;;;3.10;;
18997;SDS011;9632;51.018;4.284;2022-08-04T13:21:38;11.27;;;3.67;;
18997;SDS011;9632;51.018;4.284;2022-08-04T13:24:11;9.60;;;3.70;;
18997;SDS011;9632;51.018;4.284;2022-08-04T13:27:13;5.78;;;2.17;;
18997;SDS011;9632;51.018;4.284;2022-08-04T13:29:39;7.05;;;3.50;;
18997;SDS011;9632;51.018;4.284;2022-08-04T13:32:07;6.80;;;2.63;;
18997;SDS011;9632;51.018;4.284;2022-08-04T13:34:34;5.50;;;2.58;;
18997;SDS011;9632;51.018;4.284;2022-08-04T13:37:04;5.20;;;2.40;;
18997;SDS011;9632;51.018;4.284;2022-08-04T13:39:31;4.97;;;2.63;;
18997;SDS011;9632;51.018;4.284;2022-08-04T13:41:59;5.03;;;2.38;;
18997;SDS011;9632;51.018;4.284;2022-08-04T13:44:31;10.52;;;3.00;;
18997;SDS011;9632;51.018;4.284;2022-08-04T13:47:13;4.72;;;2.40;;
18997;SDS011;9632;51.018;4.284;2022-08-04T13:52:43;4.03;;;2.00;;
18997;SDS011;9632;51.018;4.284;2022-08-04T13:57:46;4.07;;;2.22;;
18997;SDS011;9632;51.018;4.284;2022-08-04T14:00:14;5.60;;;2.00;;
18997;SDS011;9632;51.018;4.284;2022-08-04T14:02:51;7.18;;;2.65;;
18997;SDS011;9632;51.018;4.284;2022-08-04T14:05:24;3.67;;;1.70;;
18997;SDS011;9632;51.018;4.284;2022-08-04T14:10:35;5.13;;;2.00;;
18997;SDS011;9632;51.018;4.284;2022-08-04T14:13:02;4.88;;;2.35;;
18997;SDS011;9632;51.018;4.284;2022-08-04T14:15:40;8.82;;;2.92;;
18997;SDS011;9632;51.018;4.284;2022-08-04T14:23:52;5.05;;;1.85;;
18997;SDS011;9632;51.018;4.284;2022-08-04T14:28:48;5.63;;;2.35;;
18997;SDS011;9632;51.018;4.284;2022-08-04T14:31:18;6.82;;;2.80;;
18997;SDS011;9632;51.018;4.284;2022-08-04T14:33:46;4.30;;;2.58;;
18997;SDS011;9632;51.018;4.284;2022-08-04T14:36:13;6.88;;;2.60;;
18997;SDS011;9632;51.018;4.284;2022-08-04T14:39:01;5.90;;;2.38;;
18997;SDS011;9632;51.018;4.284;2022-08-04T14:41:27;5.47;;;2.20;;
18997;SDS011;9632;51.018;4.284;2022-08-04T14:43:54;6.90;;;2.40;;
18997;SDS011;9632;51.018;4.284;2022-08-04T14:46:23;4.63;;;2.00;;
18997;SDS011;9632;51.018;4.284;2022-08-04T14:51:24;6.97;;;2.00;;
18997;SDS011;9632;51.018;4.284;2022-08-04T14:53:50;5.43;;;1.90;;
18997;SDS011;9632;51.018;4.284;2022-08-04T14:56:16;8.27;;;2.33;;
18997;SDS011;9632;51.018;4.284;2022-08-04T14:58:42;6.93;;;1.50;;
18997;SDS011;9632;51.018;4.284;2022-08-04T15:01:08;9.93;;;1.58;;
18997;SDS011;9632;51.018;4.284;2022-08-04T15:03:36;7.28;;;1.55;;
18997;SDS011;9632;51.018;4.284;2022-08-04T15:06:05;7.35;;;1.90;;
18997;SDS011;9632;51.018;4.284;2022-08-04T15:08:31;9.43;;;2.17;;
18997;SDS011;9632;51.018;4.284;2022-08-04T15:11:00;5.68;;;1.90;;
18997;SDS011;9632;51.018;4.284;2022-08-04T15:13:27;4.88;;;1.60;;
18997;SDS011;9632;51.018;4.284;2022-08-04T15:15:53;2.95;;;1.60;;
18997;SDS011;9632;51.018;4.284;2022-08-04T15:18:19;8.43;;;1.70;;
18997;SDS011;9632;51.018;4.284;2022-08-04T15:20:45;7.65;;;1.95;;
18997;SDS011;9632;51.018;4.284;2022-08-04T15:23:11;5.18;;;1.77;;
18997;SDS011;9632;51.018;4.284;2022-08-04T15:25:41;5.28;;;1.65;;
18997;SDS011;9632;51.018;4.284;2022-08-04T15:28:15;4.18;;;1.73;;
18997;SDS011;9632;51.018;4.284;2022-08-04T15:30:44;10.18;;;2.30;;
18997;SDS011;9632;51.018;4.284;2022-08-04T15:33:13;5.97;;;2.00;;
18997;SDS011;9632;51.018;4.284;2022-08-04T15:35:42;5.65;;;1.95;;
18997;SDS011;9632;51.018;4.284;2022-08-04T15:38:16;6.68;;;1.75;;
18997;SDS011;9632;51.018;4.284;2022-08-04T15:41:00;6.32;;;2.08;;
18997;SDS011;9632;51.018;4.284;2022-08-04T15:46:06;8.75;;;1.73;;
18997;SDS011;9632;51.018;4.284;2022-08-04T15:48:32;4.70;;;1.48;;
18997;SDS011;9632;51.018;4.284;2022-08-04T15:50:59;3.10;;;1.20;;
18997;SDS011;9632;51.018;4.284;2022-08-04T15:53:30;3.08;;;1.50;;
18997;SDS011;9632;51.018;4.284;2022-08-04T15:58:48;4.22;;;1.45;;
18997;SDS011;9632;51.018;4.284;2022-08-04T16:01:15;7.63;;;1.80;;
18997;SDS011;9632;51.018;4.284;2022-08-04T16:03:42;4.95;;;1.40;;
18997;SDS011;9632;51.018;4.284;2022-08-04T16:19:07;2.63;;;1.30;;
18997;SDS011;9632;51.018;4.284;2022-08-04T16:21:34;2.97;;;1.15;;
18997;SDS011;9632;51.018;4.284;2022-08-04T16:26:45;8.00;;;1.35;;
18997;SDS011;9632;51.018;4.284;2022-08-04T16:32:06;4.40;;;1.25;;
18997;SDS011;9632;51.018;4.284;2022-08-04T16:37:12;3.67;;;1.40;;
18997;SDS011;9632;51.018;4.284;2022-08-04T16:39:39;5.13;;;1.40;;
18997;SDS011;9632;51.018;4.284;2022-08-04T16:50:18;6.03;;;1.45;;
18997;SDS011;9632;51.018;4.284;2022-08-04T16:52:51;7.28;;;1.52;;
18997;SDS011;9632;51.018;4.284;2022-08-04T16:55:18;6.15;;;1.55;;
18997;SDS011;9632;51.018;4.284;2022-08-04T16:57:45;5.20;;;1.55;;
18997;SDS011;9632;51.018;4.284;2022-08-04T17:00:12;3.33;;;1.33;;
18997;SDS011;9632;51.018;4.284;2022-08-04T17:02:38;4.20;;;1.50;;
18997;SDS011;9632;51.018;4.284;2022-08-04T17:05:04;5.57;;;1.73;;
18997;SDS011;9632;51.018;4.284;2022-08-04T17:10:16;7.93;;;2.08;;
18997;SDS011;9632;51.018;4.284;2022-08-04T17:12:42;4.68;;;1.40;;
18997;SDS011;9632;51.018;4.284;2022-08-04T17:17:46;3.40;;;1.33;;
18997;SDS011;9632;51.018;4.284;2022-08-04T17:20:12;4.60;;;1.30;;
18997;SDS011;9632;51.018;4.284;2022-08-04T17:22:38;5.40;;;1.48;;
18997;SDS011;9632;51.018;4.284;2022-08-04T17:25:04;4.30;;;1.40;;
18997;SDS011;9632;51.018;4.284;2022-08-04T17:27:30;5.50;;;1.80;;
18997;SDS011;9632;51.018;4.284;2022-08-04T17:29:56;9.50;;;1.90;;
18997;SDS011;9632;51.018;4.284;2022-08-04T17:32:22;7.68;;;1.70;;
18997;SDS011;9632;51.018;4.284;2022-08-04T17:34:48;5.65;;;1.92;;
18997;SDS011;9632;51.018;4.284;2022-08-04T17:37:15;7.18;;;1.50;;
18997;SDS011;9632;51.018;4.284;2022-08-04T17:39:41;6.65;;;1.90;;
18997;SDS011;9632;51.018;4.284;2022-08-04T17:42:07;5.75;;;1.70;;
18997;SDS011;9632;51.018;4.284;2022-08-04T17:44:36;4.72;;;1.67;;
18997;SDS011;9632;51.018;4.284;2022-08-04T17:47:06;5.95;;;1.50;;
18997;SDS011;9632;51.018;4.284;2022-08-04T17:49:40;7.82;;;1.52;;
18997;SDS011;9632;51.018;4.284;2022-08-04T17:52:05;6.60;;;1.48;;
18997;SDS011;9632;51.018;4.284;2022-08-04T17:54:32;5.85;;;1.60;;
18997;SDS011;9632;51.018;4.284;2022-08-04T17:57:00;6.13;;;1.50;;
18997;SDS011;9632;51.018;4.284;2022-08-04T17:59:43;6.28;;;1.50;;
18997;SDS011;9632;51.018;4.284;2022-08-04T18:02:10;4.25;;;1.23;;
18997;SDS011;9632;51.018;4.284;2022-08-04T18:12:03;2.85;;;1.20;;
18997;SDS011;9632;51.018;4.284;2022-08-04T18:14:40;6.85;;;1.75;;
18997;SDS011;9632;51.018;4.284;2022-08-04T18:17:09;4.88;;;1.33;;
18997;SDS011;9632;51.018;4.284;2022-08-04T18:19:36;4.80;;;1.50;;
18997;SDS011;9632;51.018;4.284;2022-08-04T18:22:02;7.95;;;1.23;;
18997;SDS011;9632;51.018;4.284;2022-08-04T18:24:29;5.47;;;1.55;;
18997;SDS011;9632;51.018;4.284;2022-08-04T18:26:58;3.92;;;1.10;;
18997;SDS011;9632;51.018;4.284;2022-08-04T18:29:24;14.10;;;1.65;;
18997;SDS011;9632;51.018;4.284;2022-08-04T18:31:50;5.05;;;1.25;;
18997;SDS011;9632;51.018;4.284;2022-08-04T18:34:15;5.60;;;1.02;;
18997;SDS011;9632;51.018;4.284;2022-08-04T18:36:41;4.20;;;1.00;;
18997;SDS011;9632;51.018;4.284;2022-08-04T18:39:08;5.07;;;1.23;;
18997;SDS011;9632;51.018;4.284;2022-08-04T18:41:34;4.05;;;1.08;;
18997;SDS011;9632;51.018;4.284;2022-08-04T18:44:00;5.72;;;1.33;;
18997;SDS011;9632;51.018;4.284;2022-08-04T18:46:27;6.22;;;1.30;;
18997;SDS011;9632;51.018;4.284;2022-08-04T18:48:53;3.88;;;1.23;;
18997;SDS011;9632;51.018;4.284;2022-08-04T18:51:19;4.38;;;1.08;;
18997;SDS011;9632;51.018;4.284;2022-08-04T18:53:45;4.88;;;1.10;;
18997;SDS011;9632;51.018;4.284;2022-08-04T18:56:12;3.47;;;0.93;;
18997;SDS011;9632;51.018;4.284;2022-08-04T18:58:38;4.68;;;1.00;;
18997;SDS011;9632;51.018;4.284;2022-08-04T19:01:04;4.32;;;1.15;;
18997;SDS011;9632;51.018;4.284;2022-08-04T19:03:32;4.18;;;1.38;;
18997;SDS011;9632;51.018;4.284;2022-08-04T19:05:58;5.30;;;1.42;;
18997;SDS011;9632;51.018;4.284;2022-08-04T19:08:25;3.80;;;1.30;;
18997;SDS011;9632;51.018;4.284;2022-08-04T19:10:50;5.35;;;1.30;;
18997;SDS011;9632;51.018;4.284;2022-08-04T19:13:16;3.22;;;1.20;;
18997;SDS011;9632;51.018;4.284;2022-08-04T19:15:42;3.33;;;1.10;;
18997;SDS011;9632;51.018;4.284;2022-08-04T19:18:07;4.30;;;1.15;;
18997;SDS011;9632;51.018;4.284;2022-08-04T19:20:33;5.15;;;1.40;;
18997;SDS011;9632;51.018;4.284;2022-08-04T19:22:58;2.72;;;1.05;;
18997;SDS011;9632;51.018;4.284;2022-08-04T19:25:24;2.67;;;1.15;;
18997;SDS011;9632;51.018;4.284;2022-08-04T19:27:50;3.85;;;1.20;;
18997;SDS011;9632;51.018;4.284;2022-08-04T19:30:15;2.60;;;1.00;;
18997;SDS011;9632;51.018;4.284;2022-08-04T19:32:41;4.60;;;1.35;;
18997;SDS011;9632;51.018;4.284;2022-08-04T19:35:06;3.25;;;1.15;;
18997;SDS011;9632;51.018;4.284;2022-08-04T19:37:32;2.92;;;0.98;;
18997;SDS011;9632;51.018;4.284;2022-08-04T19:39:58;2.72;;;0.95;;
18997;SDS011;9632;51.018;4.284;2022-08-04T19:42:23;4.07;;;1.10;;
18997;SDS011;9632;51.018;4.284;2022-08-04T19:44:49;2.50;;;1.13;;
18997;SDS011;9632;51.018;4.284;2022-08-04T19:47:15;3.95;;;1.13;;
18997;SDS011;9632;51.018;4.284;2022-08-04T19:49:40;2.55;;;0.98;;
18997;SDS011;9632;51.018;4.284;2022-08-04T19:52:06;2.60;;;0.82;;
18997;SDS011;9632;51.018;4.284;2022-08-04T19:54:32;3.15;;;0.90;;
18997;SDS011;9632;51.018;4.284;2022-08-04T19:56:58;4.30;;;1.00;;
18997;SDS011;9632;51.018;4.284;2022-08-04T19:59:23;3.00;;;1.15;;
18997;SDS011;9632;51.018;4.284;2022-08-04T20:01:49;2.70;;;1.20;;
18997;SDS011;9632;51.018;4.284;2022-08-04T20:04:15;1.92;;;1.10;;
18997;SDS011;9632;51.018;4.284;2022-08-04T20:06:41;4.05;;;1.20;;
18997;SDS011;9632;51.018;4.284;2022-08-04T20:09:07;5.75;;;1.30;;